Gojar, Spain
Current Conditions -  °F | °C
As of 11:00 AM on Saturday 22 Nov 2014 (Local Time) from LEGR Reporting Station
Scattered Clouds Scattered Clouds  
Wind Chill: 61°   Ceiling: Unl
Heat Index: 61°   Visibility: 6mi
Dew Point: 50°   Wind: 6mph
Humidity: 68%   Direction: 330°NNW
Pressure: 29.94"   Gusts: NA
Location:  37.1°N, 3.61°W
Report Text: LEGR 221000Z 33005KT 290V360 9999 FEW070 SCT110 16/10 Q1014
Loading
Personal Weather Stations






























Interactive Weather Map New forecast layout! Learn more

10-Day Weather Forecast

Advertisements
Track Severe Weather on mobile